createdAt,value
2024-03-15T00:01:54.922Z,9.59
2024-03-15T00:04:57.829Z,9.66
2024-03-15T00:08:00.411Z,9.72
2024-03-15T00:11:06.560Z,9.63
2024-03-15T00:14:11.285Z,9.66
2024-03-15T00:17:14.512Z,9.58
2024-03-15T00:20:17.239Z,9.56
2024-03-15T00:23:20.135Z,9.55
2024-03-15T00:26:22.875Z,9.34
2024-03-15T00:29:25.709Z,9.40
2024-03-15T00:32:28.768Z,9.31
2024-03-15T00:35:31.799Z,9.29
2024-03-15T00:38:34.429Z,9.29
2024-03-15T00:41:37.340Z,9.30
2024-03-15T00:44:39.870Z,9.41
2024-03-15T00:47:42.972Z,9.44
2024-03-15T00:50:45.631Z,9.35
2024-03-15T00:53:48.619Z,9.43
2024-03-15T00:56:51.207Z,9.32
2024-03-15T00:59:54.207Z,9.38
2024-03-15T01:02:56.873Z,9.38
2024-03-15T01:06:00.237Z,9.40
2024-03-15T01:09:02.840Z,9.38
2024-03-15T01:12:06.131Z,9.36
2024-03-15T01:15:09.132Z,9.30
2024-03-15T01:18:12.710Z,9.39
2024-03-15T01:21:15.398Z,9.33
2024-03-15T01:24:18.383Z,9.35
2024-03-15T01:27:21.055Z,9.22
2024-03-15T01:30:24.029Z,9.31
2024-03-15T01:33:29.378Z,9.17
2024-03-15T01:36:32.352Z,9.28
2024-03-15T01:39:35.034Z,9.27
2024-03-15T01:42:38.094Z,9.24
2024-03-15T01:45:42.055Z,9.24
2024-03-15T01:48:45.931Z,9.18
2024-03-15T01:51:49.028Z,9.12
2024-03-15T01:54:56.089Z,9.11
2024-03-15T01:58:00.911Z,9.17
2024-03-15T02:01:04.276Z,9.13
2024-03-15T02:04:08.236Z,9.11
2024-03-15T02:07:10.917Z,9.10
2024-03-15T02:10:16.525Z,9.11
2024-03-15T02:13:19.360Z,9.09
2024-03-15T02:16:22.508Z,9.17
2024-03-15T02:19:26.051Z,8.90
2024-03-15T02:22:29.017Z,8.73
2024-03-15T02:25:31.842Z,8.80
2024-03-15T02:28:34.831Z,8.93
2024-03-15T02:31:37.490Z,9.00
2024-03-15T02:34:40.468Z,9.00
2024-03-15T02:37:43.180Z,8.94
2024-03-15T02:40:46.106Z,8.94
2024-03-15T02:43:48.826Z,8.82
2024-03-15T02:46:51.852Z,8.77
2024-03-15T02:49:57.258Z,8.84
2024-03-15T02:53:01.244Z,8.82
2024-03-15T02:56:04.189Z,8.82
2024-03-15T02:59:08.413Z,8.65
2024-03-15T03:02:11.081Z,8.47
2024-03-15T03:05:13.947Z,8.52
2024-03-15T03:08:16.624Z,8.61
2024-03-15T03:11:19.556Z,8.79
2024-03-15T03:14:22.192Z,8.79
2024-03-15T03:17:26.786Z,8.81
2024-03-15T03:20:34.139Z,8.81
2024-03-15T03:23:37.089Z,8.68
2024-03-15T03:26:39.675Z,8.60
2024-03-15T03:29:42.844Z,8.62
2024-03-15T03:32:45.509Z,8.48
2024-03-15T03:35:48.427Z,8.38
2024-03-15T03:38:51.094Z,8.37
2024-03-15T03:41:56.027Z,8.40
2024-03-15T03:44:59.247Z,8.48
2024-03-15T03:48:02.211Z,8.53
2024-03-15T03:51:05.592Z,8.37
2024-03-15T03:54:10.429Z,8.36
2024-03-15T03:57:35.234Z,8.47
2024-03-15T04:00:46.031Z,8.40
2024-03-15T04:03:52.153Z,8.50
2024-03-15T04:06:54.763Z,8.48
2024-03-15T04:09:58.451Z,8.53
2024-03-15T04:13:01.439Z,8.46
2024-03-15T04:16:05.520Z,8.47
2024-03-15T04:19:11.200Z,8.39
2024-03-15T04:22:14.470Z,8.37
2024-03-15T04:25:18.170Z,8.23
2024-03-15T04:28:21.104Z,8.14
2024-03-15T04:31:24.105Z,8.15
2024-03-15T04:34:26.941Z,8.07
2024-03-15T04:37:30.047Z,8.03
2024-03-15T04:40:32.976Z,8.08
2024-03-15T04:43:36.082Z,7.98
2024-03-15T04:46:38.992Z,8.11
2024-03-15T04:49:41.629Z,8.31
2024-03-15T04:52:44.540Z,8.22
2024-03-15T04:55:47.215Z,8.15
2024-03-15T04:58:50.159Z,7.97
2024-03-15T05:01:53.683Z,8.06
2024-03-15T05:04:56.564Z,8.03
2024-03-15T05:07:59.208Z,8.00
2024-03-15T05:11:03.262Z,8.07
2024-03-15T05:14:06.909Z,8.03
2024-03-15T05:17:09.789Z,8.05
2024-03-15T05:20:14.689Z,8.00
2024-03-15T05:23:18.685Z,8.18
2024-03-15T05:26:21.955Z,8.25
2024-03-15T05:29:24.816Z,8.20
2024-03-15T05:32:29.551Z,8.15
2024-03-15T05:35:32.584Z,8.16
2024-03-15T05:38:35.210Z,8.10
2024-03-15T05:41:40.210Z,8.11
2024-03-15T05:44:42.780Z,8.07
2024-03-15T05:47:46.022Z,8.38
2024-03-15T05:50:49.065Z,8.20
2024-03-15T05:53:52.010Z,8.20
2024-03-15T05:56:54.561Z,8.43
2024-03-15T05:59:57.502Z,8.66
2024-03-15T06:03:04.203Z,8.62
2024-03-15T06:06:09.936Z,8.72
2024-03-15T06:09:14.412Z,8.71
2024-03-15T06:12:17.667Z,8.80
2024-03-15T06:15:20.773Z,8.97
2024-03-15T06:18:23.888Z,9.22
2024-03-15T06:21:28.132Z,9.19
2024-03-15T06:24:31.241Z,9.20
2024-03-15T06:27:34.102Z,9.59
2024-03-15T06:30:44.570Z,9.51
2024-03-15T06:33:50.313Z,9.61
2024-03-15T06:36:55.843Z,9.63
2024-03-15T06:39:58.710Z,9.93
2024-03-15T06:43:04.716Z,10.23
2024-03-15T06:46:11.036Z,10.25
2024-03-15T06:49:14.432Z,10.31
2024-03-15T06:52:36.205Z,10.44
2024-03-15T06:55:39.381Z,10.59
2024-03-15T06:58:44.326Z,10.57
2024-03-15T07:01:47.254Z,10.65
2024-03-15T07:04:52.609Z,10.64
2024-03-15T07:07:55.495Z,10.96
2024-03-15T07:10:58.115Z,11.10
2024-03-15T07:14:05.397Z,11.30
2024-03-15T07:17:10.394Z,11.66
2024-03-15T07:20:14.812Z,11.78
2024-03-15T07:23:17.925Z,12.21
2024-03-15T07:26:20.849Z,12.31
2024-03-15T07:29:23.510Z,12.27
2024-03-15T07:32:26.608Z,12.29
2024-03-15T07:35:29.257Z,12.20
2024-03-15T07:38:32.458Z,12.29
2024-03-15T07:41:35.761Z,12.48
2024-03-15T07:44:38.938Z,12.82
2024-03-15T07:47:41.545Z,12.88
2024-03-15T07:50:44.587Z,13.05
2024-03-15T07:53:47.563Z,13.11
2024-03-15T07:56:51.026Z,12.86
2024-03-15T07:59:54.224Z,13.01
2024-03-15T08:02:59.689Z,13.44
2024-03-15T08:06:06.448Z,13.66
2024-03-15T08:09:12.534Z,13.72
2024-03-15T08:12:16.400Z,13.74
2024-03-15T08:15:19.467Z,13.57
2024-03-15T08:18:22.753Z,13.51
2024-03-15T08:21:26.043Z,13.88
2024-03-15T08:24:29.330Z,14.06
2024-03-15T08:27:32.649Z,14.34
2024-03-15T08:30:35.764Z,14.43
2024-03-15T08:33:38.614Z,14.75
2024-03-15T08:36:42.281Z,14.77
2024-03-15T08:39:45.380Z,14.99
2024-03-15T08:42:48.327Z,15.46
2024-03-15T08:45:51.309Z,15.40
2024-03-15T08:48:55.135Z,15.69
2024-03-15T08:51:57.826Z,15.53
2024-03-15T08:55:00.849Z,15.82
2024-03-15T08:58:03.651Z,15.69
2024-03-15T09:01:06.933Z,15.65
2024-03-15T09:04:09.890Z,15.95
2024-03-15T09:07:13.007Z,15.82
2024-03-15T09:10:16.329Z,16.07
2024-03-15T09:13:20.491Z,16.19
2024-03-15T09:16:23.538Z,15.88
2024-03-15T09:19:26.936Z,16.14
2024-03-15T09:22:29.692Z,16.57
2024-03-15T09:25:32.898Z,16.90
2024-03-15T09:28:39.529Z,16.99
2024-03-15T09:32:00.396Z,16.86
2024-03-15T09:35:06.232Z,16.65
2024-03-15T09:38:09.096Z,16.43
2024-03-15T09:41:13.256Z,16.20
2024-03-15T09:44:18.024Z,16.03
2024-03-15T09:47:21.024Z,15.76
2024-03-15T09:50:30.723Z,16.03
2024-03-15T09:53:33.528Z,16.52
2024-03-15T09:56:38.424Z,16.61
2024-03-15T09:59:42.595Z,16.60
2024-03-15T10:02:53.206Z,16.77
2024-03-15T10:05:57.620Z,16.65
2024-03-15T10:09:05.277Z,16.52
2024-03-15T10:12:11.376Z,16.40
2024-03-15T10:15:16.225Z,16.36
2024-03-15T10:18:19.169Z,16.40
2024-03-15T10:21:21.866Z,16.43
2024-03-15T10:24:25.734Z,16.22
2024-03-15T10:27:29.032Z,16.15
2024-03-15T10:30:33.275Z,16.16
2024-03-15T10:33:36.625Z,16.21
2024-03-15T10:36:41.363Z,16.02
2024-03-15T10:39:44.306Z,16.05
2024-03-15T10:42:49.738Z,15.91
2024-03-15T10:45:52.509Z,16.11
2024-03-15T10:48:57.466Z,16.91
2024-03-15T10:52:00.368Z,16.91
2024-03-15T10:55:06.471Z,17.11
2024-03-15T10:58:10.345Z,17.18
2024-03-15T11:01:14.202Z,17.53
2024-03-15T11:04:17.282Z,17.63
2024-03-15T11:07:21.942Z,17.51
2024-03-15T11:10:24.771Z,17.39
2024-03-15T11:13:34.637Z,16.82
2024-03-15T11:16:37.346Z,16.74
2024-03-15T11:19:49.648Z,16.60
2024-03-15T11:22:56.400Z,16.39
2024-03-15T11:25:59.235Z,16.37
2024-03-15T11:29:03.617Z,16.39
2024-03-15T11:32:15.100Z,16.12
2024-03-15T11:35:18.869Z,16.13
2024-03-15T11:38:21.939Z,16.07
2024-03-15T11:41:24.672Z,15.93
2024-03-15T11:44:29.097Z,15.92
2024-03-15T11:47:33.385Z,15.79
2024-03-15T11:50:37.362Z,15.77
2024-03-15T11:53:40.007Z,15.94
2024-03-15T11:56:44.296Z,15.96
2024-03-15T11:59:47.929Z,16.06
2024-03-15T12:02:54.203Z,16.08
2024-03-15T12:05:59.671Z,16.12
2024-03-15T12:09:06.282Z,16.08
2024-03-15T12:12:09.170Z,16.28
2024-03-15T12:15:29.589Z,16.41
2024-03-15T12:18:32.648Z,16.62
2024-03-15T12:21:39.995Z,16.70
2024-03-15T12:24:43.026Z,17.22
2024-03-15T12:27:45.832Z,17.42
2024-03-15T12:30:50.787Z,17.27
2024-03-15T12:33:53.695Z,16.77
2024-03-15T12:36:57.673Z,16.77
2024-03-15T12:40:00.434Z,16.57
2024-03-15T12:43:04.222Z,16.57
2024-03-15T12:46:12.491Z,16.72
2024-03-15T12:49:15.429Z,16.63
2024-03-15T12:52:18.122Z,16.85
2024-03-15T12:55:21.143Z,16.89
2024-03-15T12:58:23.840Z,16.91
2024-03-15T13:01:26.990Z,16.95
2024-03-15T13:04:29.901Z,16.99
2024-03-15T13:07:33.568Z,16.85
2024-03-15T13:10:36.208Z,16.72
2024-03-15T13:13:39.351Z,16.72
2024-03-15T13:16:42.604Z,16.64
2024-03-15T13:19:45.607Z,16.61
2024-03-15T13:22:54.229Z,16.61
2024-03-15T13:25:58.933Z,16.44
2024-03-15T13:29:01.569Z,16.24
2024-03-15T13:32:05.830Z,16.18
2024-03-15T13:35:19.179Z,15.96
2024-03-15T13:38:22.126Z,16.02
2024-03-15T13:41:25.992Z,16.13
2024-03-15T13:44:29.141Z,16.13
2024-03-15T13:48:15.578Z,16.11
2024-03-15T13:51:18.554Z,16.13
2024-03-15T13:54:21.241Z,16.08
2024-03-15T13:57:24.187Z,15.96
2024-03-15T14:00:36.017Z,16.03
2024-03-15T14:03:39.370Z,16.10
2024-03-15T14:06:42.827Z,16.02
2024-03-15T14:09:45.822Z,16.00
2024-03-15T14:12:50.544Z,16.02
2024-03-15T14:15:53.718Z,16.04
2024-03-15T14:18:59.454Z,16.01
2024-03-15T14:22:05.293Z,15.93
2024-03-15T14:25:08.177Z,15.90
2024-03-15T14:28:11.622Z,15.89
2024-03-15T14:31:14.396Z,15.91
2024-03-15T14:34:17.369Z,15.66
2024-03-15T14:37:21.665Z,15.80
2024-03-15T14:40:28.176Z,15.85
2024-03-15T14:43:31.101Z,15.81
2024-03-15T14:46:36.610Z,16.15
2024-03-15T14:49:39.327Z,16.25
2024-03-15T14:52:42.329Z,16.08
2024-03-15T14:55:44.980Z,15.92
2024-03-15T14:58:49.357Z,15.70
2024-03-15T15:01:52.302Z,15.55
2024-03-15T15:04:55.670Z,15.41
2024-03-15T15:08:04.498Z,15.31
2024-03-15T15:11:07.505Z,15.13
2024-03-15T15:14:10.378Z,15.08
2024-03-15T15:17:14.308Z,15.02
2024-03-15T15:20:19.742Z,14.98
2024-03-15T15:23:24.624Z,14.89
2024-03-15T15:26:27.546Z,14.94
2024-03-15T15:29:30.529Z,14.94
2024-03-15T15:32:33.657Z,14.90
2024-03-15T15:35:36.535Z,14.88
2024-03-15T15:38:39.654Z,14.82
2024-03-15T15:41:43.691Z,14.65
2024-03-15T15:44:46.401Z,14.68
2024-03-15T15:47:49.305Z,14.68
2024-03-15T15:50:51.947Z,14.64
2024-03-15T15:53:55.850Z,14.62
2024-03-15T15:56:58.451Z,14.55
2024-03-15T16:00:01.942Z,14.52
2024-03-15T16:03:08.509Z,14.43
2024-03-15T16:06:11.499Z,14.35
2024-03-15T16:09:16.289Z,14.29
2024-03-15T16:12:19.250Z,14.20
2024-03-15T16:15:22.935Z,14.11
2024-03-15T16:18:25.925Z,14.00
2024-03-15T16:21:28.724Z,13.81
2024-03-15T16:24:31.835Z,13.78
2024-03-15T16:27:34.642Z,13.64
2024-03-15T16:30:37.659Z,13.53
2024-03-15T16:33:40.407Z,13.41
2024-03-15T16:36:43.488Z,13.25
2024-03-15T16:39:46.416Z,13.08
2024-03-15T16:42:53.977Z,12.96
2024-03-15T16:45:58.507Z,12.81
2024-03-15T16:49:02.779Z,12.69
2024-03-15T16:52:05.802Z,12.49
2024-03-15T16:55:13.077Z,12.30
2024-03-15T16:58:16.404Z,12.08
2024-03-15T17:01:19.386Z,12.08
2024-03-15T17:04:22.318Z,11.92
2024-03-15T17:07:25.939Z,11.78
2024-03-15T17:10:28.685Z,11.65
2024-03-15T17:13:31.746Z,11.61
2024-03-15T17:16:34.621Z,11.50
2024-03-15T17:19:40.248Z,11.39
2024-03-15T17:22:42.926Z,11.25
2024-03-15T17:25:50.946Z,11.36
2024-03-15T17:28:53.894Z,11.36
2024-03-15T17:31:56.783Z,11.33
2024-03-15T17:35:00.701Z,11.23
2024-03-15T17:38:04.224Z,11.24
2024-03-15T17:41:07.043Z,11.26
2024-03-15T17:44:10.063Z,11.30
2024-03-15T17:47:12.974Z,11.16
2024-03-15T17:50:15.864Z,11.15
2024-03-15T17:53:18.548Z,11.03
2024-03-15T17:56:24.957Z,10.91
2024-03-15T17:59:27.907Z,10.95
2024-03-15T18:02:30.980Z,10.83
2024-03-15T18:05:34.165Z,10.76
2024-03-15T18:08:36.789Z,10.67
2024-03-15T18:11:40.153Z,10.68
2024-03-15T18:14:44.813Z,10.62
2024-03-15T18:17:48.270Z,10.65
2024-03-15T18:20:51.227Z,10.62
2024-03-15T18:23:54.604Z,10.60
2024-03-15T18:26:57.340Z,10.59
2024-03-15T18:30:00.599Z,10.52
2024-03-15T18:33:04.148Z,10.59
2024-03-15T18:36:07.716Z,10.63
2024-03-15T18:39:10.313Z,10.59
2024-03-15T18:42:13.291Z,10.62
2024-03-15T18:45:16.267Z,10.68
2024-03-15T18:48:19.963Z,10.68
2024-03-15T18:51:23.553Z,10.58
2024-03-15T18:54:26.535Z,10.54
2024-03-15T18:57:29.159Z,10.45
2024-03-15T19:00:34.379Z,10.49
2024-03-15T19:03:38.970Z,10.52
2024-03-15T19:06:42.238Z,10.54
2024-03-15T19:09:47.166Z,10.60
2024-03-15T19:12:50.281Z,10.61
2024-03-15T19:15:53.039Z,10.70
2024-03-15T19:18:56.203Z,10.81
2024-03-15T19:21:59.273Z,10.96
2024-03-15T19:25:02.706Z,10.96
2024-03-15T19:28:05.767Z,11.02
2024-03-15T19:31:08.810Z,11.07
2024-03-15T19:34:11.649Z,11.11
2024-03-15T19:37:14.716Z,11.15
2024-03-15T19:40:17.626Z,11.10
2024-03-15T19:43:22.537Z,11.08
2024-03-15T19:46:26.146Z,11.14
2024-03-15T19:49:29.351Z,11.23
2024-03-15T19:52:32.610Z,11.16
2024-03-15T19:55:39.367Z,11.03
2024-03-15T19:58:43.366Z,11.02
2024-03-15T20:01:46.476Z,10.92
2024-03-15T20:04:50.133Z,10.81
2024-03-15T20:07:53.088Z,10.76
2024-03-15T20:10:56.804Z,10.70
2024-03-15T20:14:02.575Z,10.67
2024-03-15T20:17:06.417Z,10.61
2024-03-15T20:20:11.514Z,10.58
2024-03-15T20:23:14.512Z,10.60
2024-03-15T20:26:18.301Z,10.56
2024-03-15T20:29:21.201Z,10.51
2024-03-15T20:32:24.037Z,10.58
2024-03-15T20:35:29.206Z,10.64
2024-03-15T20:38:32.384Z,10.66
2024-03-15T20:41:35.530Z,10.69
2024-03-15T20:44:39.489Z,10.65
2024-03-15T20:47:43.470Z,10.72
2024-03-15T20:50:46.269Z,10.80
2024-03-15T20:53:52.840Z,10.86
2024-03-15T20:56:55.793Z,10.81
2024-03-15T20:59:58.790Z,10.73
2024-03-15T21:03:01.643Z,10.74
2024-03-15T21:06:06.420Z,10.62
2024-03-15T21:09:10.666Z,10.58
2024-03-15T21:12:13.994Z,10.47
2024-03-15T21:15:17.371Z,10.38
2024-03-15T21:18:21.413Z,10.21
2024-03-15T21:21:24.255Z,10.10
2024-03-15T21:24:27.255Z,9.87
2024-03-15T21:27:31.696Z,9.81
2024-03-15T21:30:34.671Z,9.63
2024-03-15T21:33:37.456Z,9.51
2024-03-15T21:36:40.726Z,9.37
2024-03-15T21:39:43.399Z,9.29
2024-03-15T21:42:48.630Z,9.15
2024-03-15T21:45:53.915Z,9.08
2024-03-15T21:48:56.962Z,9.10
2024-03-15T21:51:59.898Z,8.91
2024-03-15T21:55:05.704Z,8.86
2024-03-15T21:58:09.428Z,8.78
2024-03-15T22:01:13.683Z,8.62
2024-03-15T22:04:20.171Z,8.64
2024-03-15T22:07:22.770Z,8.47
2024-03-15T22:10:25.685Z,8.31
2024-03-15T22:13:29.817Z,8.40
2024-03-15T22:16:36.879Z,8.31
2024-03-15T22:19:39.465Z,8.19
2024-03-15T22:22:42.374Z,8.13
2024-03-15T22:25:51.498Z,8.21
2024-03-15T22:28:54.686Z,8.03
2024-03-15T22:31:57.278Z,7.94
2024-03-15T22:35:00.309Z,8.02
2024-03-15T22:38:04.285Z,7.92
2024-03-15T22:41:07.474Z,7.96
2024-03-15T22:44:10.090Z,7.67
2024-03-15T22:47:13.038Z,7.46
2024-03-15T22:50:15.822Z,7.47
2024-03-15T22:53:18.761Z,7.28
2024-03-15T22:56:21.417Z,7.24
2024-03-15T22:59:24.311Z,7.12
2024-03-15T23:02:28.073Z,7.12
2024-03-15T23:05:30.897Z,7.12
2024-03-15T23:08:33.644Z,7.18
2024-03-15T23:11:36.571Z,7.15
2024-03-15T23:14:39.129Z,7.21
2024-03-15T23:17:42.074Z,7.24
2024-03-15T23:20:49.949Z,7.17
2024-03-15T23:23:53.007Z,7.40
2024-03-15T23:26:55.802Z,7.16
2024-03-15T23:29:58.673Z,7.21
2024-03-15T23:33:01.972Z,7.37
2024-03-15T23:36:05.236Z,7.17
2024-03-15T23:39:16.793Z,7.16
2024-03-15T23:42:20.030Z,7.17
2024-03-15T23:45:22.782Z,7.17
2024-03-15T23:48:28.121Z,7.06
2024-03-15T23:51:30.808Z,7.01
2024-03-15T23:54:33.823Z,6.93
2024-03-15T23:57:37.033Z,6.88
